Time;durP1;ratioP1;P1;durP2;ratioP2;P2;SDS_P1;SDS_P2;PMS_P1;PMS_P2;Temp;Humidity;BMP_temperature;BMP_pressure;BME280_temperature;BME280_humidity;BME280_pressure;Samples;Min_cycle;Max_cycle;Signal;HPM_P1;HPM_P2
2022/07/18 00:01:31;;;;;;;;;;;20.80;56.00;;;;;;5063179;28;19909;-71
2022/07/18 00:03:57;;;;;;;;;;;20.70;56.20;;;;;;5063706;28;20726;-71
2022/07/18 00:06:22;;;;;;;;;;;20.70;56.30;;;;;;5064124;28;20619;-71
2022/07/18 00:08:48;;;;;;;;;;;20.70;56.30;;;;;;5064358;28;20004;-71
2022/07/18 00:11:13;;;;;;;;;;;20.70;56.30;;;;;;5063339;28;19955;-71
2022/07/18 00:13:39;;;;;;;;;;;20.60;56.30;;;;;;5046351;28;19913;-71
2022/07/18 00:16:04;;;;;;;;;;;20.60;56.40;;;;;;5045892;28;20020;-71
2022/07/18 00:18:30;;;;;;;;;;;20.60;56.50;;;;;;5044853;28;20519;-71
2022/07/18 00:20:56;;;;;;;;;;;20.60;56.40;;;;;;5053109;28;19913;-71
2022/07/18 00:23:22;;;;;;;;;;;20.50;56.40;;;;;;5045920;28;20003;-71
2022/07/18 00:25:47;;;;;;;;;;;20.50;56.50;;;;;;5045416;28;20003;-71
2022/07/18 00:28:13;;;;;;;;;;;20.40;56.60;;;;;;5045836;28;19913;-71
2022/07/18 00:30:39;;;;;;;;;;;20.40;56.80;;;;;;5047600;28;19913;-71
2022/07/18 00:33:04;;;;;;;;;;;20.40;57.10;;;;;;5060962;28;20069;-71
2022/07/18 00:35:30;;;;;;;;;;;20.30;57.00;;;;;;5052905;28;20158;-71
2022/07/18 00:37:55;;;;;;;;;;;20.30;56.70;;;;;;5063552;28;20541;-71
2022/07/18 00:40:21;;;;;;;;;;;20.30;56.90;;;;;;5045547;28;19951;-71
2022/07/18 00:42:46;;;;;;;;;;;20.30;56.80;;;;;;5044820;28;20298;-71
2022/07/18 00:45:12;;;;;;;;;;;20.30;57.00;;;;;;5044926;28;19917;-71
2022/07/18 00:47:38;;;;;;;;;;;20.20;57.00;;;;;;5045296;28;19995;-71
2022/07/18 00:50:05;;;;;;;;;;;20.20;57.00;;;;;;5045832;28;19909;-71
2022/07/18 00:52:31;;;;;;;;;;;20.20;57.10;;;;;;5045228;28;19916;-71
2022/07/18 00:54:56;;;;;;;;;;;20.10;57.20;;;;;;5045578;28;19982;-71
2022/07/18 00:57:22;;;;;;;;;;;20.10;57.30;;;;;;5045165;28;20006;-71
2022/07/18 01:02:32;;;;;;;;;;;20.00;57.20;;;;;;5063770;28;19978;-71
2022/07/18 01:04:57;;;;;;;;;;;20.00;57.40;;;;;;5063233;28;19916;-71
2022/07/18 01:07:23;;;;;;;;;;;20.00;57.60;;;;;;5046072;28;19912;-71
2022/07/18 01:09:48;;;;;;;;;;;20.00;58.00;;;;;;5063534;28;19919;-71
2022/07/18 01:12:14;;;;;;;;;;;19.90;57.80;;;;;;5063466;28;20488;-71
2022/07/18 01:14:40;;;;;;;;;;;19.90;57.70;;;;;;5062790;28;19923;-71
2022/07/18 01:17:13;;;;;;;;;;;19.90;57.50;;;;;;5062729;28;20004;-71
2022/07/18 01:19:38;;;;;;;;;;;19.90;57.70;;;;;;5063419;28;20002;-71
2022/07/18 01:22:04;;;;;;;;;;;19.90;57.70;;;;;;5063047;28;20001;-71
2022/07/18 01:24:29;;;;;;;;;;;19.80;57.90;;;;;;5063261;28;19912;-71
2022/07/18 01:26:55;;;;;;;;;;;19.80;58.30;;;;;;5057548;28;19916;-71
2022/07/18 01:29:20;;;;;;;;;;;19.80;58.70;;;;;;5047006;28;20645;-71
2022/07/18 01:31:46;;;;;;;;;;;19.70;59.00;;;;;;5053151;28;19998;-71
2022/07/18 01:34:11;;;;;;;;;;;19.70;59.20;;;;;;5063385;28;19956;-71
2022/07/18 01:36:37;;;;;;;;;;;19.70;59.20;;;;;;5063072;28;20010;-71
2022/07/18 01:39:03;;;;;;;;;;;19.60;58.90;;;;;;5054679;28;19913;-71
2022/07/18 01:41:28;;;;;;;;;;;19.60;59.30;;;;;;5044706;28;20490;-71
2022/07/18 01:43:54;;;;;;;;;;;19.60;59.50;;;;;;5044842;28;20000;-72
2022/07/18 01:46:19;;;;;;;;;;;19.60;59.10;;;;;;5044254;28;20616;-71
2022/07/18 01:48:45;;;;;;;;;;;19.50;59.30;;;;;;5043971;28;19920;-71
2022/07/18 01:51:11;;;;;;;;;;;19.60;59.40;;;;;;5044722;28;20019;-71
2022/07/18 01:53:37;;;;;;;;;;;19.50;59.20;;;;;;5044936;28;20368;-71
2022/07/18 01:56:03;;;;;;;;;;;19.50;59.60;;;;;;5044812;28;20015;-71
2022/07/18 01:58:28;;;;;;;;;;;19.50;59.70;;;;;;5044544;28;19912;-71
2022/07/18 02:00:54;;;;;;;;;;;19.50;59.60;;;;;;5048802;28;19913;-71
2022/07/18 02:03:19;;;;;;;;;;;19.40;59.90;;;;;;5063201;28;20779;-71
2022/07/18 02:05:45;;;;;;;;;;;19.40;60.10;;;;;;5061600;28;19913;-71
2022/07/18 02:08:10;;;;;;;;;;;19.40;60.20;;;;;;5062048;28;19922;-71
2022/07/18 02:10:36;;;;;;;;;;;19.30;60.30;;;;;;5062415;28;19916;-71
2022/07/18 02:13:02;;;;;;;;;;;19.30;60.40;;;;;;5050563;28;20011;-71
2022/07/18 02:15:27;;;;;;;;;;;19.30;60.50;;;;;;5043924;28;19913;-71
2022/07/18 02:17:53;;;;;;;;;;;19.30;60.20;;;;;;5043876;28;20006;-71
2022/07/18 02:20:18;;;;;;;;;;;19.20;60.00;;;;;;5043478;28;19920;-71
2022/07/18 02:22:44;;;;;;;;;;;19.30;60.20;;;;;;5042501;28;20498;-71
2022/07/18 02:25:10;;;;;;;;;;;19.30;60.00;;;;;;5043680;28;19931;-71
2022/07/18 02:27:35;;;;;;;;;;;19.20;60.50;;;;;;5064131;28;20003;-71
2022/07/18 02:30:01;;;;;;;;;;;19.20;60.80;;;;;;5066297;28;19916;-71
2022/07/18 02:32:27;;;;;;;;;;;19.10;60.80;;;;;;5060738;28;20015;-71
2022/07/18 02:34:52;;;;;;;;;;;19.10;61.00;;;;;;5052710;28;19944;-71
2022/07/18 02:37:18;;;;;;;;;;;19.10;60.90;;;;;;5050741;28;20006;-71
2022/07/18 02:39:43;;;;;;;;;;;19.10;60.90;;;;;;5051062;28;19916;-71
2022/07/18 02:42:09;;;;;;;;;;;19.10;60.90;;;;;;5047337;28;20392;-71
2022/07/18 02:44:34;;;;;;;;;;;19.10;61.00;;;;;;5047068;28;19970;-71
2022/07/18 02:47:00;;;;;;;;;;;19.00;61.00;;;;;;5046682;28;20313;-71
2022/07/18 02:49:28;;;;;;;;;;;19.00;61.00;;;;;;5047175;28;19984;-71
2022/07/18 02:51:54;;;;;;;;;;;19.00;61.10;;;;;;5065414;28;19916;-71
2022/07/18 02:54:20;;;;;;;;;;;19.00;61.20;;;;;;5065214;28;19923;-71
2022/07/18 02:56:45;;;;;;;;;;;19.00;61.30;;;;;;5065180;28;19920;-71
2022/07/18 02:59:11;;;;;;;;;;;19.00;61.20;;;;;;5065524;28;19967;-71
2022/07/18 03:01:36;;;;;;;;;;;18.90;61.20;;;;;;5066171;28;19935;-71
2022/07/18 03:04:02;;;;;;;;;;;18.90;61.30;;;;;;5047447;28;19920;-71
2022/07/18 03:06:28;;;;;;;;;;;18.90;61.40;;;;;;5062070;28;20388;-71
2022/07/18 03:08:53;;;;;;;;;;;18.90;61.30;;;;;;5063646;28;19942;-71
2022/07/18 03:11:19;;;;;;;;;;;18.80;61.50;;;;;;5065224;28;20075;-71
2022/07/18 03:13:45;;;;;;;;;;;18.80;61.40;;;;;;5065165;28;20537;-71
2022/07/18 03:16:10;;;;;;;;;;;18.80;61.40;;;;;;5063939;28;19955;-71
2022/07/18 03:18:35;;;;;;;;;;;18.80;61.50;;;;;;5065285;28;19919;-71
2022/07/18 03:21:01;;;;;;;;;;;18.80;61.50;;;;;;5065076;28;19950;-71
2022/07/18 03:23:26;;;;;;;;;;;18.80;61.60;;;;;;5065196;28;20030;-71
2022/07/18 03:25:52;;;;;;;;;;;18.80;61.60;;;;;;5064860;28;19920;-71
2022/07/18 03:28:17;;;;;;;;;;;18.80;61.60;;;;;;5064444;28;19923;-71
2022/07/18 03:30:43;;;;;;;;;;;18.70;61.60;;;;;;5064669;28;19970;-71
2022/07/18 03:33:08;;;;;;;;;;;18.70;61.70;;;;;;5064615;28;19917;-71
2022/07/18 03:35:34;;;;;;;;;;;18.70;61.70;;;;;;5064961;28;19919;-71
2022/07/18 03:37:59;;;;;;;;;;;18.70;61.70;;;;;;5063497;28;19923;-71
2022/07/18 03:40:25;;;;;;;;;;;18.70;61.80;;;;;;5063726;28;19920;-71
2022/07/18 03:42:50;;;;;;;;;;;18.70;61.70;;;;;;5065080;28;20011;-71
2022/07/18 03:45:16;;;;;;;;;;;18.60;62.00;;;;;;5064729;28;20597;-71
2022/07/18 03:47:42;;;;;;;;;;;18.60;61.90;;;;;;5062925;28;19912;-71
2022/07/18 03:50:07;;;;;;;;;;;18.60;62.00;;;;;;5064859;28;19916;-71
2022/07/18 03:52:33;;;;;;;;;;;18.60;62.00;;;;;;5064948;28;19928;-71
2022/07/18 03:55:01;;;;;;;;;;;18.60;62.00;;;;;;5065282;28;19916;-71
2022/07/18 03:57:27;;;;;;;;;;;18.60;62.10;;;;;;5044065;28;20424;-71
2022/07/18 03:59:52;;;;;;;;;;;18.50;62.10;;;;;;5064547;28;20019;-71
2022/07/18 04:02:18;;;;;;;;;;;18.50;62.10;;;;;;5064695;28;20239;-71
2022/07/18 04:04:44;;;;;;;;;;;18.50;62.20;;;;;;5064316;28;20495;-71
2022/07/18 04:07:09;;;;;;;;;;;18.50;62.20;;;;;;5064402;28;19912;-71
2022/07/18 04:09:35;;;;;;;;;;;18.50;62.30;;;;;;5064030;28;20544;-71
2022/07/18 04:12:00;;;;;;;;;;;18.50;62.30;;;;;;5063933;28;20375;-71
2022/07/18 04:14:25;;;;;;;;;;;18.50;62.40;;;;;;5063936;28;19958;-71
2022/07/18 04:16:51;;;;;;;;;;;18.50;62.20;;;;;;5057204;28;19913;-71
2022/07/18 04:19:17;;;;;;;;;;;18.40;62.40;;;;;;5045779;28;19912;-71
2022/07/18 04:21:42;;;;;;;;;;;18.40;62.60;;;;;;5044456;28;20756;-71
2022/07/18 04:24:08;;;;;;;;;;;18.40;62.50;;;;;;5045604;28;19944;-71
2022/07/18 04:26:33;;;;;;;;;;;18.40;62.50;;;;;;5045160;28;20023;-71
2022/07/18 04:28:59;;;;;;;;;;;18.40;62.50;;;;;;5045955;28;19944;-71
2022/07/18 04:31:24;;;;;;;;;;;18.40;62.70;;;;;;5064166;28;19916;-71
2022/07/18 04:33:50;;;;;;;;;;;18.40;62.70;;;;;;5060547;28;19979;-71
2022/07/18 04:36:15;;;;;;;;;;;18.40;62.50;;;;;;5058943;28;20006;-71
2022/07/18 04:38:41;;;;;;;;;;;18.40;63.40;;;;;;5058816;28;19991;-71
2022/07/18 04:41:07;;;;;;;;;;;18.40;62.80;;;;;;5045489;28;20066;-71
2022/07/18 04:43:32;;;;;;;;;;;18.40;62.70;;;;;;5043928;28;19913;-71
2022/07/18 04:45:58;;;;;;;;;;;18.40;62.70;;;;;;5045032;28;19920;-71
2022/07/18 04:48:23;;;;;;;;;;;18.40;62.70;;;;;;5045030;28;19924;-71
2022/07/18 04:50:49;;;;;;;;;;;18.40;62.80;;;;;;5043470;28;19959;-71
2022/07/18 04:53:14;;;;;;;;;;;18.40;62.80;;;;;;5044807;28;19913;-71
2022/07/18 04:55:40;;;;;;;;;;;18.30;62.70;;;;;;5044697;28;19916;-71
2022/07/18 04:58:05;;;;;;;;;;;18.30;62.70;;;;;;5044519;28;19948;-71
2022/07/18 05:00:31;;;;;;;;;;;18.30;62.80;;;;;;5043667;28;20382;-71
2022/07/18 05:02:57;;;;;;;;;;;18.30;62.70;;;;;;5063244;28;19924;-71
2022/07/18 05:05:24;;;;;;;;;;;18.30;62.70;;;;;;5063541;28;19912;-71
2022/07/18 05:07:50;;;;;;;;;;;18.30;62.70;;;;;;5061492;28;19912;-71
2022/07/18 05:10:16;;;;;;;;;;;18.30;62.70;;;;;;5063081;28;19920;-71
2022/07/18 05:12:43;;;;;;;;;;;18.30;62.50;;;;;;5062779;28;19982;-71
2022/07/18 05:15:10;;;;;;;;;;;18.30;62.40;;;;;;5062899;28;20572;-71
2022/07/18 05:17:36;;;;;;;;;;;18.30;62.30;;;;;;5062932;28;19912;-71
2022/07/18 05:20:03;;;;;;;;;;;18.30;62.70;;;;;;5062870;28;19908;-71
2022/07/18 05:22:28;;;;;;;;;;;18.20;62.30;;;;;;5063406;28;19943;-71
2022/07/18 05:24:54;;;;;;;;;;;18.20;62.40;;;;;;5063828;28;20027;-71
2022/07/18 05:27:19;;;;;;;;;;;18.20;62.20;;;;;;5063175;28;19917;-71
2022/07/18 05:29:45;;;;;;;;;;;18.20;63.10;;;;;;5062957;28;20439;-71
2022/07/18 05:32:11;;;;;;;;;;;18.20;62.30;;;;;;5063211;28;19920;-71
2022/07/18 05:34:36;;;;;;;;;;;18.20;62.40;;;;;;5062990;28;19916;-71
2022/07/18 05:37:02;;;;;;;;;;;18.20;62.40;;;;;;5062876;28;20369;-71
2022/07/18 05:39:27;;;;;;;;;;;18.20;62.30;;;;;;5052675;28;20330;-71
2022/07/18 05:41:53;;;;;;;;;;;18.20;62.50;;;;;;5043016;28;20419;-71
2022/07/18 05:44:21;;;;;;;;;;;18.30;62.40;;;;;;5044631;28;19967;-71
2022/07/18 05:46:47;;;;;;;;;;;18.20;62.40;;;;;;5044129;28;19920;-71
2022/07/18 05:49:13;;;;;;;;;;;18.30;62.60;;;;;;5042757;28;19913;-71
2022/07/18 05:51:39;;;;;;;;;;;18.30;62.50;;;;;;5062770;28;20006;-71
2022/07/18 05:54:04;;;;;;;;;;;18.30;62.60;;;;;;5062831;28;20647;-71
2022/07/18 05:56:30;;;;;;;;;;;18.30;62.40;;;;;;5062137;28;20000;-71
2022/07/18 05:58:55;;;;;;;;;;;18.30;62.50;;;;;;5062695;28;19908;-71
2022/07/18 06:01:21;;;;;;;;;;;18.30;62.60;;;;;;5063730;28;20310;-71
2022/07/18 06:03:47;;;;;;;;;;;18.30;62.50;;;;;;5066775;28;19912;-71
2022/07/18 06:06:13;;;;;;;;;;;18.30;62.40;;;;;;5066712;28;20331;-71
2022/07/18 06:08:38;;;;;;;;;;;18.40;62.40;;;;;;5066177;28;20306;-71
2022/07/18 06:11:06;;;;;;;;;;;18.30;62.50;;;;;;5066602;28;19919;-71
2022/07/18 06:13:32;;;;;;;;;;;18.40;62.50;;;;;;5066716;28;19909;-71
2022/07/18 06:15:58;;;;;;;;;;;18.40;62.60;;;;;;5066159;28;19919;-71
2022/07/18 06:18:23;;;;;;;;;;;18.40;62.50;;;;;;5065937;28;19909;-71
2022/07/18 06:20:49;;;;;;;;;;;18.40;62.50;;;;;;5063551;28;20023;-71
2022/07/18 06:23:14;;;;;;;;;;;18.40;62.40;;;;;;5065077;28;19913;-71
2022/07/18 06:25:40;;;;;;;;;;;18.40;62.30;;;;;;5066134;28;19923;-71
2022/07/18 06:28:06;;;;;;;;;;;18.50;62.30;;;;;;5064191;28;20007;-71
2022/07/18 06:30:31;;;;;;;;;;;18.50;62.20;;;;;;5065824;28;20007;-71
2022/07/18 06:32:57;;;;;;;;;;;18.50;62.10;;;;;;5052112;28;20586;-71
2022/07/18 06:35:22;;;;;;;;;;;18.50;62.10;;;;;;5053644;28;19913;-71
2022/07/18 06:37:48;;;;;;;;;;;18.60;62.10;;;;;;5060589;28;19920;-71
2022/07/18 06:40:14;;;;;;;;;;;18.60;61.90;;;;;;5049714;28;20622;-71
2022/07/18 06:42:39;;;;;;;;;;;18.60;62.40;;;;;;5047430;28;19913;-70
2022/07/18 06:45:05;;;;;;;;;;;18.60;61.70;;;;;;5046655;28;19921;-71
2022/07/18 06:47:31;;;;;;;;;;;18.70;61.60;;;;;;5046958;28;19936;-70
2022/07/18 06:49:56;;;;;;;;;;;18.70;61.40;;;;;;5047146;28;19913;-71
2022/07/18 06:52:22;;;;;;;;;;;18.80;61.30;;;;;;5047130;28;19925;-70
2022/07/18 06:54:48;;;;;;;;;;;18.80;61.20;;;;;;5045678;28;19923;-70
2022/07/18 06:57:13;;;;;;;;;;;18.80;61.10;;;;;;5046787;28;20329;-70
2022/07/18 06:59:38;;;;;;;;;;;18.80;61.10;;;;;;5045350;28;19935;-70
2022/07/18 07:02:04;;;;;;;;;;;18.90;61.10;;;;;;5058882;28;19912;-70
2022/07/18 07:04:30;;;;;;;;;;;18.90;60.90;;;;;;5065040;28;19996;-71
2022/07/18 07:06:56;;;;;;;;;;;18.90;60.80;;;;;;5064787;28;20278;-71
2022/07/18 07:09:21;;;;;;;;;;;18.90;60.80;;;;;;5065404;28;19999;-71
2022/07/18 07:11:47;;;;;;;;;;;19.00;60.80;;;;;;5064149;28;19923;-70
2022/07/18 07:14:12;;;;;;;;;;;19.00;60.80;;;;;;5063765;28;19912;-70
2022/07/18 07:16:38;;;;;;;;;;;19.10;60.60;;;;;;5064395;28;19912;-70
2022/07/18 07:19:03;;;;;;;;;;;19.10;60.70;;;;;;5064596;28;19923;-71
2022/07/18 07:21:29;;;;;;;;;;;19.10;60.30;;;;;;5064725;28;20441;-71
2022/07/18 07:23:54;;;;;;;;;;;19.10;60.50;;;;;;5064717;28;20018;-71
2022/07/18 07:26:19;;;;;;;;;;;19.20;60.50;;;;;;5058508;28;20572;-70
2022/07/18 07:28:45;;;;;;;;;;;19.20;60.20;;;;;;5049528;28;20011;-70
2022/07/18 07:31:11;;;;;;;;;;;19.20;60.20;;;;;;5050839;28;19973;-70
2022/07/18 07:33:36;;;;;;;;;;;19.30;60.10;;;;;;5063993;28;19955;-71
2022/07/18 07:36:03;;;;;;;;;;;19.30;60.10;;;;;;5064476;28;19919;-70
2022/07/18 07:38:29;;;;;;;;;;;19.30;60.20;;;;;;5062206;28;20011;-71
2022/07/18 07:40:54;;;;;;;;;;;19.40;60.00;;;;;;5046185;28;20398;-71
2022/07/18 07:43:20;;;;;;;;;;;19.40;59.80;;;;;;5046217;28;19917;-71
2022/07/18 07:45:48;;;;;;;;;;;19.40;59.70;;;;;;5046245;28;20008;-71
2022/07/18 07:48:14;;;;;;;;;;;19.50;59.60;;;;;;5046260;28;19913;-71
2022/07/18 07:50:39;;;;;;;;;;;19.50;59.60;;;;;;5046521;28;20392;-71
2022/07/18 07:53:05;;;;;;;;;;;19.60;59.50;;;;;;5046347;28;20420;-71
2022/07/18 07:55:31;;;;;;;;;;;19.60;59.40;;;;;;5045944;28;19939;-70
2022/07/18 07:57:56;;;;;;;;;;;19.70;59.30;;;;;;5045860;28;19912;-70
2022/07/18 08:00:22;;;;;;;;;;;19.70;59.30;;;;;;5046129;28;20662;-71
2022/07/18 08:02:55;;;;;;;;;;;19.80;59.20;;;;;;5064162;28;19916;-71
2022/07/18 08:05:20;;;;;;;;;;;19.80;59.10;;;;;;5058559;28;19923;-71
2022/07/18 08:07:46;;;;;;;;;;;19.90;59.00;;;;;;5045799;28;20573;-71
2022/07/18 08:10:12;;;;;;;;;;;19.90;58.90;;;;;;5064244;28;20310;-71
2022/07/18 08:12:37;;;;;;;;;;;19.90;58.80;;;;;;5062824;28;19936;-70
2022/07/18 08:15:03;;;;;;;;;;;20.00;58.70;;;;;;5063891;28;19998;-71
2022/07/18 08:17:28;;;;;;;;;;;20.00;58.70;;;;;;5064057;28;20395;-70
2022/07/18 08:19:54;;;;;;;;;;;20.10;58.60;;;;;;5064347;28;20400;-71
2022/07/18 08:22:19;;;;;;;;;;;20.10;58.50;;;;;;5061357;28;20027;-71
2022/07/18 08:24:45;;;;;;;;;;;20.20;58.40;;;;;;5044858;28;19913;-71
2022/07/18 08:27:11;;;;;;;;;;;20.30;58.30;;;;;;5045371;28;20296;-71
2022/07/18 08:29:36;;;;;;;;;;;20.30;58.20;;;;;;5045623;28;19963;-71
2022/07/18 08:32:02;;;;;;;;;;;20.30;58.10;;;;;;5053378;28;19916;-71
2022/07/18 08:34:27;;;;;;;;;;;20.40;58.00;;;;;;5059778;28;19913;-71
2022/07/18 08:36:53;;;;;;;;;;;20.50;58.00;;;;;;5046958;28;20555;-70
2022/07/18 08:39:18;;;;;;;;;;;20.50;57.90;;;;;;5050478;28;19997;-71
2022/07/18 08:41:47;;;;;;;;;;;20.60;57.90;;;;;;5045353;28;19944;-71
2022/07/18 08:44:13;;;;;;;;;;;20.60;57.80;;;;;;5045696;28;20408;-70
2022/07/18 08:46:39;;;;;;;;;;;20.70;57.80;;;;;;5044990;28;19920;-71
2022/07/18 08:49:05;;;;;;;;;;;20.70;57.60;;;;;;5045136;28;19991;-71
2022/07/18 08:51:30;;;;;;;;;;;20.70;57.60;;;;;;5045234;28;19928;-71
2022/07/18 08:53:56;;;;;;;;;;;20.80;57.50;;;;;;5045186;28;19916;-71
2022/07/18 08:56:21;;;;;;;;;;;20.80;57.30;;;;;;5045083;28;20362;-71
2022/07/18 08:58:47;;;;;;;;;;;20.90;57.30;;;;;;5045120;28;19981;-71
2022/07/18 09:01:12;;;;;;;;;;;20.90;57.00;;;;;;5044931;28;19924;-71
2022/07/18 09:03:38;;;;;;;;;;;21.00;57.10;;;;;;5062631;28;19938;-71
2022/07/18 09:06:10;;;;;;;;;;;21.10;57.00;;;;;;5062848;28;19920;-71
2022/07/18 09:08:40;;;;;;;;;;;21.10;57.00;;;;;;5063141;28;19913;-71
2022/07/18 09:11:09;;;;;;;;;;;21.20;56.90;;;;;;5063238;28;19912;-71
2022/07/18 09:13:35;;;;;;;;;;;21.30;56.70;;;;;;5044575;28;20082;-71
2022/07/18 09:16:00;;;;;;;;;;;21.30;56.60;;;;;;5044433;28;20052;-71
2022/07/18 09:18:27;;;;;;;;;;;21.40;56.60;;;;;;5048014;28;19913;-71
2022/07/18 09:20:59;;;;;;;;;;;21.40;56.50;;;;;;5044453;28;19943;-71
2022/07/18 09:23:29;;;;;;;;;;;21.50;56.30;;;;;;5058332;28;20004;-71
2022/07/18 09:25:55;;;;;;;;;;;21.60;56.20;;;;;;5044331;28;19919;-71
2022/07/18 09:28:20;;;;;;;;;;;21.70;56.30;;;;;;5044169;28;19913;-71
2022/07/18 09:30:46;;;;;;;;;;;21.70;56.20;;;;;;5047884;28;19913;-71
2022/07/18 09:33:11;;;;;;;;;;;21.80;55.90;;;;;;5059138;28;20071;-71
2022/07/18 09:35:37;;;;;;;;;;;21.90;55.90;;;;;;5063167;28;20503;-71
2022/07/18 09:38:07;;;;;;;;;;;21.90;55.50;;;;;;5063666;28;19981;-71
2022/07/18 09:40:37;;;;;;;;;;;22.00;55.70;;;;;;5048620;28;19919;-71
2022/07/18 09:43:07;;;;;;;;;;;22.10;56.30;;;;;;5048126;28;19919;-71
2022/07/18 09:45:39;;;;;;;;;;;22.20;55.60;;;;;;5048720;28;19921;-71
2022/07/18 09:48:12;;;;;;;;;;;22.20;55.50;;;;;;5064003;28;19913;-71
2022/07/18 09:50:40;;;;;;;;;;;22.30;55.20;;;;;;5063087;28;19913;-71
2022/07/18 09:53:05;;;;;;;;;;;22.30;55.40;;;;;;5066882;28;20082;-71
2022/07/18 09:55:32;;;;;;;;;;;22.40;55.30;;;;;;5066608;28;19999;-71
2022/07/18 09:58:05;;;;;;;;;;;22.40;55.00;;;;;;5066266;28;19912;-71
2022/07/18 10:00:33;;;;;;;;;;;22.60;55.10;;;;;;5048418;28;19984;-71
2022/07/18 10:02:59;;;;;;;;;;;22.60;54.80;;;;;;5060768;28;20481;-70
2022/07/18 10:05:29;;;;;;;;;;;22.70;54.70;;;;;;5066722;28;19912;-71
2022/07/18 10:07:54;;;;;;;;;;;22.80;54.70;;;;;;5065871;28;19913;-71
2022/07/18 10:10:20;;;;;;;;;;;22.90;54.70;;;;;;5066327;28;19917;-71
2022/07/18 10:12:46;;;;;;;;;;;23.00;54.60;;;;;;5066089;28;20046;-71
2022/07/18 10:15:12;;;;;;;;;;;23.10;54.40;;;;;;5059334;28;20026;-71
2022/07/18 10:17:38;;;;;;;;;;;23.10;54.40;;;;;;5047626;28;19975;-71
2022/07/18 10:20:07;;;;;;;;;;;23.20;54.20;;;;;;5048071;28;19912;-71
2022/07/18 10:22:38;;;;;;;;;;;23.30;54.10;;;;;;5047905;28;19912;-71
2022/07/18 10:25:05;;;;;;;;;;;23.40;54.50;;;;;;5066019;28;19912;-72
2022/07/18 10:27:48;;;;;;;;;;;23.50;54.30;;;;;;5065572;28;19924;-72
2022/07/18 10:30:14;;;;;;;;;;;23.60;54.70;;;;;;5064800;28;19919;-72
2022/07/18 10:32:40;;;;;;;;;;;23.60;54.40;;;;;;5057543;28;19939;-71
2022/07/18 10:35:10;;;;;;;;;;;23.70;54.20;;;;;;5051600;28;19969;-72
2022/07/18 10:37:36;;;;;;;;;;;23.80;54.50;;;;;;5064505;28;19919;-71
2022/07/18 10:40:22;;;;;;;;;;;23.90;55.10;;;;;;5053786;28;19909;-72
2022/07/18 10:43:08;;;;;;;;;;;24.10;54.40;;;;;;5062573;28;19913;-71
2022/07/18 10:45:44;;;;;;;;;;;24.20;54.30;;;;;;5061069;28;19974;-71
2022/07/18 10:48:28;;;;;;;;;;;24.30;54.70;;;;;;5065154;28;19916;-71
2022/07/18 10:51:07;;;;;;;;;;;24.40;54.30;;;;;;5065540;28;19919;-71
2022/07/18 10:53:51;;;;;;;;;;;24.50;54.50;;;;;;5065293;28;19916;-71
2022/07/18 10:56:16;;;;;;;;;;;24.70;54.40;;;;;;5065094;28;19912;-71
2022/07/18 10:58:42;;;;;;;;;;;24.80;54.90;;;;;;5065640;28;19965;-71
2022/07/18 11:01:13;;;;;;;;;;;24.90;55.00;;;;;;5065273;28;20039;-71
2022/07/18 11:03:38;;;;;;;;;;;25.10;54.60;;;;;;5065683;28;19920;-71
2022/07/18 11:06:04;;;;;;;;;;;25.20;54.60;;;;;;5065754;28;19917;-71
2022/07/18 11:08:31;;;;;;;;;;;25.30;55.00;;;;;;5065132;28;19916;-71
2022/07/18 11:11:01;;;;;;;;;;;25.50;54.50;;;;;;5065362;28;20222;-71
2022/07/18 11:16:00;;;;;;;;;;;25.70;55.00;;;;;;5064780;28;19961;-71
2022/07/18 11:18:25;;;;;;;;;;;25.90;54.30;;;;;;5065145;28;20003;-71
2022/07/18 11:20:51;;;;;;;;;;;26.00;54.70;;;;;;5065492;28;20319;-70
2022/07/18 11:23:17;;;;;;;;;;;26.10;54.80;;;;;;5065227;28;19966;-70
2022/07/18 11:25:42;;;;;;;;;;;26.30;54.80;;;;;;5050943;28;19940;-70
2022/07/18 11:28:11;;;;;;;;;;;26.40;55.10;;;;;;5046736;28;19919;-71
2022/07/18 11:30:37;;;;;;;;;;;26.50;55.00;;;;;;5046992;28;19970;-71
2022/07/18 11:33:03;;;;;;;;;;;26.60;54.80;;;;;;5060046;28;20023;-71
2022/07/18 11:35:29;;;;;;;;;;;26.70;54.50;;;;;;5064858;28;19913;-70
2022/07/18 11:37:55;;;;;;;;;;;26.90;55.20;;;;;;5062408;28;19966;-70
2022/07/18 11:40:21;;;;;;;;;;;27.00;54.70;;;;;;5064225;28;19982;-70
2022/07/18 11:42:47;;;;;;;;;;;27.10;54.80;;;;;;5064597;28;19943;-71
2022/07/18 11:45:13;;;;;;;;;;;27.20;55.00;;;;;;5064203;28;19956;-71
2022/07/18 11:47:49;;;;;;;;;;;27.30;55.20;;;;;;5064594;28;19913;-71
2022/07/18 11:50:15;;;;;;;;;;;27.30;55.10;;;;;;5061647;28;19912;-71
2022/07/18 11:52:42;;;;;;;;;;;27.40;55.10;;;;;;5064309;28;19958;-71
2022/07/18 11:55:07;;;;;;;;;;;27.50;54.50;;;;;;5062832;28;19912;-70
2022/07/18 11:57:33;;;;;;;;;;;27.50;54.40;;;;;;5064396;28;19913;-70
2022/07/18 12:00:00;;;;;;;;;;;27.60;54.50;;;;;;5063598;28;19932;-70
2022/07/18 12:02:44;;;;;;;;;;;27.80;54.60;;;;;;5063659;28;19913;-70
2022/07/18 12:05:10;;;;;;;;;;;27.80;54.30;;;;;;5048926;28;20436;-70
2022/07/18 12:07:35;;;;;;;;;;;27.90;54.40;;;;;;5061988;28;19912;-70
2022/07/18 12:10:14;;;;;;;;;;;28.00;54.50;;;;;;5056809;28;19915;-70
2022/07/18 12:12:40;;;;;;;;;;;28.10;54.40;;;;;;5049255;28;19995;-70
2022/07/18 12:15:06;;;;;;;;;;;28.10;54.30;;;;;;5044043;28;19916;-70
2022/07/18 12:17:42;;;;;;;;;;;28.20;54.50;;;;;;5042964;28;20364;-70
2022/07/18 12:20:10;;;;;;;;;;;28.40;53.70;;;;;;5044275;28;20528;-71
2022/07/18 12:22:36;;;;;;;;;;;28.50;54.50;;;;;;5044555;28;19913;-70
2022/07/18 12:25:01;;;;;;;;;;;28.50;54.20;;;;;;5044190;28;19915;-70
2022/07/18 12:27:33;;;;;;;;;;;28.60;54.60;;;;;;5044451;28;19947;-70
2022/07/18 12:30:04;;;;;;;;;;;28.70;53.90;;;;;;5049964;28;19959;-70
2022/07/18 12:32:37;;;;;;;;;;;28.80;54.30;;;;;;5053655;28;19920;-70
2022/07/18 12:35:05;;;;;;;;;;;28.80;54.10;;;;;;5062222;28;19912;-70
2022/07/18 12:37:30;;;;;;;;;;;28.90;54.30;;;;;;5056924;28;19996;-70
2022/07/18 12:39:57;;;;;;;;;;;29.00;54.60;;;;;;5048513;28;20000;-70
2022/07/18 12:42:30;;;;;;;;;;;29.10;53.80;;;;;;5049246;28;19913;-70
2022/07/18 12:44:55;;;;;;;;;;;29.20;53.90;;;;;;5043262;28;19916;-70
2022/07/18 12:47:21;;;;;;;;;;;29.20;54.00;;;;;;5043628;28;20380;-70
2022/07/18 12:49:47;;;;;;;;;;;29.30;53.80;;;;;;5045551;28;19934;-70
2022/07/18 12:52:12;;;;;;;;;;;29.40;54.10;;;;;;5043565;28;19924;-70
2022/07/18 12:54:38;;;;;;;;;;;29.50;54.30;;;;;;5044133;28;19913;-70
2022/07/18 12:57:03;;;;;;;;;;;29.50;54.30;;;;;;5043403;28;19920;-70
2022/07/18 12:59:29;;;;;;;;;;;29.60;54.30;;;;;;5044018;28;20267;-70
2022/07/18 13:01:54;;;;;;;;;;;29.60;53.60;;;;;;5047682;28;19981;-69
2022/07/18 13:04:20;;;;;;;;;;;29.70;54.30;;;;;;5051787;28;19956;-70
2022/07/18 13:06:45;;;;;;;;;;;29.70;54.20;;;;;;5060190;28;20543;-70
2022/07/18 13:09:11;;;;;;;;;;;29.80;53.70;;;;;;5062478;28;20365;-69
2022/07/18 13:11:37;;;;;;;;;;;29.90;53.60;;;;;;5061682;28;19923;-70
2022/07/18 13:14:02;;;;;;;;;;;30.00;53.50;;;;;;5061295;28;19938;-70
2022/07/18 13:16:28;;;;;;;;;;;30.10;54.00;;;;;;5056335;28;19912;-70
2022/07/18 13:18:53;;;;;;;;;;;30.10;54.30;;;;;;5043876;28;19909;-70
2022/07/18 13:21:19;;;;;;;;;;;30.10;54.20;;;;;;5043548;28;19955;-70
2022/07/18 13:23:44;;;;;;;;;;;30.20;54.20;;;;;;5052187;28;19979;-70
2022/07/18 13:26:10;;;;;;;;;;;30.20;54.00;;;;;;5051467;28;19916;-70
2022/07/18 13:28:35;;;;;;;;;;;30.30;53.80;;;;;;5046624;28;19917;-70
2022/07/18 13:31:01;;;;;;;;;;;30.40;52.80;;;;;;5049989;28;19917;-70
2022/07/18 13:33:27;;;;;;;;;;;30.40;53.90;;;;;;5055715;28;19963;-70
2022/07/18 13:35:52;;;;;;;;;;;30.50;53.80;;;;;;5061554;28;20695;-70
2022/07/18 13:38:18;;;;;;;;;;;30.50;53.30;;;;;;5056761;28;19914;-70
2022/07/18 13:40:43;;;;;;;;;;;30.50;53.30;;;;;;5043224;28;19912;-70
2022/07/18 13:43:09;;;;;;;;;;;30.60;53.50;;;;;;5042682;28;19920;-70
2022/07/18 13:45:34;;;;;;;;;;;30.70;53.80;;;;;;5046404;28;19955;-70
2022/07/18 13:48:00;;;;;;;;;;;30.70;52.70;;;;;;5045445;28;19917;-70
2022/07/18 13:50:25;;;;;;;;;;;30.80;53.80;;;;;;5043622;28;19920;-70
2022/07/18 13:52:51;;;;;;;;;;;30.80;54.40;;;;;;5043652;28;19917;-70
2022/07/18 13:55:16;;;;;;;;;;;30.90;53.60;;;;;;5048979;28;19935;-70
2022/07/18 13:57:42;;;;;;;;;;;31.00;52.30;;;;;;5046738;28;19913;-70
2022/07/18 14:00:08;;;;;;;;;;;31.00;53.40;;;;;;5044608;28;20365;-70
2022/07/18 14:02:34;;;;;;;;;;;31.10;51.20;;;;;;5053170;28;19950;-70
2022/07/18 14:04:59;;;;;;;;;;;31.10;53.10;;;;;;5062693;28;20712;-70
2022/07/18 14:07:25;;;;;;;;;;;31.20;53.50;;;;;;5061734;28;19913;-70
2022/07/18 14:09:50;;;;;;;;;;;31.20;53.60;;;;;;5062174;28;19923;-70
2022/07/18 14:12:16;;;;;;;;;;;31.30;53.60;;;;;;5060319;28;19999;-70
2022/07/18 14:14:42;;;;;;;;;;;31.30;53.30;;;;;;5041465;28;20374;-70
2022/07/18 14:17:07;;;;;;;;;;;31.40;52.30;;;;;;5061907;28;19952;-70